sensor_id;sensor_type;location;lat;lon;timestamp;pressure;altitude;pressure_sealevel;temperature;humidity
43683;BME280;29285;52.128;21.060;2023-05-10T00:03:35;101008.33;;;11.25;42.74
43683;BME280;29285;52.128;21.060;2023-05-10T00:08:36;101003.36;;;11.16;42.95
43683;BME280;29285;52.128;21.060;2023-05-10T00:13:37;101005.70;;;11.06;43.22
43683;BME280;29285;52.128;21.060;2023-05-10T00:18:39;101001.77;;;10.95;43.40
43683;BME280;29285;52.128;21.060;2023-05-10T00:23:40;100995.80;;;10.82;43.68
43683;BME280;29285;52.128;21.060;2023-05-10T00:28:41;100992.52;;;10.78;44.05
43683;BME280;29285;52.128;21.060;2023-05-10T00:33:42;100990.48;;;10.70;44.25
43683;BME280;29285;52.128;21.060;2023-05-10T00:38:43;100988.09;;;10.65;44.61
43683;BME280;29285;52.128;21.060;2023-05-10T00:43:44;100980.14;;;10.61;44.95
43683;BME280;29285;52.128;21.060;2023-05-10T00:48:45;100980.35;;;10.53;45.24
43683;BME280;29285;52.128;21.060;2023-05-10T00:53:46;100979.52;;;10.46;45.33
43683;BME280;29285;52.128;21.060;2023-05-10T00:58:49;100972.23;;;10.44;45.74
43683;BME280;29285;52.128;21.060;2023-05-10T01:03:50;100976.73;;;10.38;45.92
43683;BME280;29285;52.128;21.060;2023-05-10T01:08:51;100974.67;;;10.33;46.11
43683;BME280;29285;52.128;21.060;2023-05-10T01:13:55;100968.98;;;10.28;46.30
43683;BME280;29285;52.128;21.060;2023-05-10T01:18:57;100969.17;;;10.25;46.59
43683;BME280;29285;52.128;21.060;2023-05-10T01:29:44;100965.77;;;10.11;47.02
43683;BME280;29285;52.128;21.060;2023-05-10T01:35:03;100968.05;;;10.04;47.22
43683;BME280;29285;52.128;21.060;2023-05-10T01:40:17;100968.24;;;9.95;47.28
43683;BME280;29285;52.128;21.060;2023-05-10T01:50:38;100961.52;;;9.87;47.73
43683;BME280;29285;52.128;21.060;2023-05-10T01:55:49;100958.76;;;9.82;47.85
43683;BME280;29285;52.128;21.060;2023-05-10T02:00:52;100957.21;;;9.76;48.05
43683;BME280;29285;52.128;21.060;2023-05-10T02:05:55;100952.03;;;9.70;48.14
43683;BME280;29285;52.128;21.060;2023-05-10T02:10:58;100952.56;;;9.66;48.29
43683;BME280;29285;52.128;21.060;2023-05-10T02:16:01;100948.77;;;9.65;48.52
43683;BME280;29285;52.128;21.060;2023-05-10T02:21:04;100948.42;;;9.63;48.71
43683;BME280;29285;52.128;21.060;2023-05-10T02:26:06;100944.42;;;9.60;48.90
43683;BME280;29285;52.128;21.060;2023-05-10T02:31:09;100940.64;;;9.53;49.03
43683;BME280;29285;52.128;21.060;2023-05-10T02:36:12;100937.72;;;9.44;49.09
43683;BME280;29285;52.128;21.060;2023-05-10T02:41:14;100938.41;;;9.38;49.26
43683;BME280;29285;52.128;21.060;2023-05-10T02:46:15;100943.10;;;9.32;49.39
43683;BME280;29285;52.128;21.060;2023-05-10T02:51:19;100941.55;;;9.28;49.60
43683;BME280;29285;52.128;21.060;2023-05-10T02:56:31;100946.39;;;9.26;49.81
43683;BME280;29285;52.128;21.060;2023-05-10T03:01:34;100948.29;;;9.26;50.12
43683;BME280;29285;52.128;21.060;2023-05-10T03:06:35;100950.55;;;9.24;50.32
43683;BME280;29285;52.128;21.060;2023-05-10T03:11:43;100945.52;;;9.22;50.33
43683;BME280;29285;52.128;21.060;2023-05-10T03:16:56;100948.30;;;9.22;50.63
43683;BME280;29285;52.128;21.060;2023-05-10T03:22:08;100947.95;;;9.22;50.81
43683;BME280;29285;52.128;21.060;2023-05-10T03:27:11;100951.42;;;9.20;50.96
43683;BME280;29285;52.128;21.060;2023-05-10T03:32:13;100948.48;;;9.23;50.98
43683;BME280;29285;52.128;21.060;2023-05-10T03:37:14;100943.62;;;9.29;51.38
43683;BME280;29285;52.128;21.060;2023-05-10T03:42:16;100941.71;;;9.33;51.58
43683;BME280;29285;52.128;21.060;2023-05-10T03:47:18;100944.64;;;9.37;51.72
43683;BME280;29285;52.128;21.060;2023-05-10T03:52:19;100944.48;;;9.35;51.84
43683;BME280;29285;52.128;21.060;2023-05-10T03:57:20;100940.14;;;9.43;52.13
43683;BME280;29285;52.128;21.060;2023-05-10T04:02:21;100943.42;;;9.50;52.37
43683;BME280;29285;52.128;21.060;2023-05-10T04:07:22;100944.95;;;9.61;52.56
43683;BME280;29285;52.128;21.060;2023-05-10T04:12:24;100947.88;;;9.68;52.81
43683;BME280;29285;52.128;21.060;2023-05-10T04:17:25;100948.88;;;9.82;52.98
43683;BME280;29285;52.128;21.060;2023-05-10T04:22:26;100953.19;;;9.91;53.25
43683;BME280;29285;52.128;21.060;2023-05-10T04:27:28;100951.77;;;10.02;53.38
43683;BME280;29285;52.128;21.060;2023-05-10T04:32:29;100954.67;;;10.11;53.64
43683;BME280;29285;52.128;21.060;2023-05-10T04:37:30;100954.46;;;10.19;53.56
43683;BME280;29285;52.128;21.060;2023-05-10T04:42:31;100957.52;;;10.35;53.95
43683;BME280;29285;52.128;21.060;2023-05-10T04:47:33;100954.33;;;10.51;54.08
43683;BME280;29285;52.128;21.060;2023-05-10T04:52:34;100955.66;;;10.60;54.20
43683;BME280;29285;52.128;21.060;2023-05-10T04:57:37;100957.74;;;10.86;54.95
43683;BME280;29285;52.128;21.060;2023-05-10T05:02:38;100959.22;;;10.99;55.46
43683;BME280;29285;52.128;21.060;2023-05-10T05:07:39;100959.99;;;11.10;55.61
43683;BME280;29285;52.128;21.060;2023-05-10T05:12:40;100959.53;;;11.24;55.59
43683;BME280;29285;52.128;21.060;2023-05-10T05:17:41;100955.08;;;11.37;55.84
43683;BME280;29285;52.128;21.060;2023-05-10T05:22:42;100951.98;;;11.51;55.98
43683;BME280;29285;52.128;21.060;2023-05-10T05:27:44;100955.85;;;11.64;56.26
43683;BME280;29285;52.128;21.060;2023-05-10T05:32:45;100956.05;;;11.77;56.32
43683;BME280;29285;52.128;21.060;2023-05-10T05:37:47;100950.90;;;11.88;56.25
43683;BME280;29285;52.128;21.060;2023-05-10T05:42:49;100951.30;;;11.98;56.28
43683;BME280;29285;52.128;21.060;2023-05-10T05:47:50;100952.27;;;12.19;56.58
43683;BME280;29285;52.128;21.060;2023-05-10T05:52:51;100954.92;;;12.55;57.33
43683;BME280;29285;52.128;21.060;2023-05-10T05:57:52;100960.37;;;12.77;57.62
43683;BME280;29285;52.128;21.060;2023-05-10T06:02:54;100959.85;;;12.88;57.51
43683;BME280;29285;52.128;21.060;2023-05-10T06:07:55;100959.38;;;13.06;57.63
43683;BME280;29285;52.128;21.060;2023-05-10T06:12:57;100960.05;;;13.19;57.81
43683;BME280;29285;52.128;21.060;2023-05-10T06:17:58;100959.77;;;13.35;57.74
43683;BME280;29285;52.128;21.060;2023-05-10T06:22:59;100953.11;;;13.48;57.83
43683;BME280;29285;52.128;21.060;2023-05-10T06:28:00;100960.85;;;13.63;57.84
43683;BME280;29285;52.128;21.060;2023-05-10T06:33:02;100958.05;;;13.83;58.12
43683;BME280;29285;52.128;21.060;2023-05-10T06:38:03;100958.54;;;14.02;58.26
43683;BME280;29285;52.128;21.060;2023-05-10T06:43:05;100962.45;;;14.16;58.29
43683;BME280;29285;52.128;21.060;2023-05-10T06:48:07;100956.63;;;14.27;58.08
43683;BME280;29285;52.128;21.060;2023-05-10T06:53:08;100955.02;;;14.37;57.81
43683;BME280;29285;52.128;21.060;2023-05-10T06:58:09;100951.13;;;14.55;58.03
43683;BME280;29285;52.128;21.060;2023-05-10T07:03:10;100945.59;;;14.68;58.00
43683;BME280;29285;52.128;21.060;2023-05-10T07:08:11;100940.48;;;14.86;57.89
43683;BME280;29285;52.128;21.060;2023-05-10T07:13:14;100941.00;;;15.08;58.05
43683;BME280;29285;52.128;21.060;2023-05-10T07:18:15;100937.17;;;15.07;57.49
43683;BME280;29285;52.128;21.060;2023-05-10T07:23:16;100933.04;;;15.11;56.91
43683;BME280;29285;52.128;21.060;2023-05-10T07:28:21;100935.58;;;15.22;56.51
43683;BME280;29285;52.128;21.060;2023-05-10T07:33:22;100933.46;;;15.42;56.60
43683;BME280;29285;52.128;21.060;2023-05-10T07:38:23;100933.53;;;15.60;56.46
43683;BME280;29285;52.128;21.060;2023-05-10T07:43:25;100934.42;;;15.72;56.14
43683;BME280;29285;52.128;21.060;2023-05-10T07:48:26;100937.80;;;15.89;55.93
43683;BME280;29285;52.128;21.060;2023-05-10T07:53:27;100930.51;;;15.93;55.40
43683;BME280;29285;52.128;21.060;2023-05-10T07:58:28;100936.20;;;15.96;54.56
43683;BME280;29285;52.128;21.060;2023-05-10T08:03:29;100927.27;;;16.10;54.21
43683;BME280;29285;52.128;21.060;2023-05-10T08:08:30;100923.09;;;16.15;53.52
43683;BME280;29285;52.128;21.060;2023-05-10T08:13:31;100925.02;;;16.14;52.69
43683;BME280;29285;52.128;21.060;2023-05-10T08:18:32;100923.30;;;16.31;52.42
43683;BME280;29285;52.128;21.060;2023-05-10T08:23:33;100921.42;;;16.41;51.98
43683;BME280;29285;52.128;21.060;2023-05-10T08:28:34;100915.19;;;16.50;51.47
43683;BME280;29285;52.128;21.060;2023-05-10T08:33:35;100913.86;;;16.58;51.12
43683;BME280;29285;52.128;21.060;2023-05-10T08:38:37;100911.10;;;16.68;50.70
43683;BME280;29285;52.128;21.060;2023-05-10T08:43:38;100915.23;;;16.76;50.25
43683;BME280;29285;52.128;21.060;2023-05-10T08:48:40;100918.95;;;16.85;49.89
43683;BME280;29285;52.128;21.060;2023-05-10T08:53:41;100909.00;;;16.90;49.50
43683;BME280;29285;52.128;21.060;2023-05-10T08:58:43;100917.16;;;16.97;49.09
43683;BME280;29285;52.128;21.060;2023-05-10T09:03:46;100918.16;;;17.05;48.75
43683;BME280;29285;52.128;21.060;2023-05-10T09:08:48;100914.11;;;17.11;48.31
43683;BME280;29285;52.128;21.060;2023-05-10T09:13:50;100903.09;;;17.20;48.26
43683;BME280;29285;52.128;21.060;2023-05-10T09:18:51;100903.89;;;17.22;47.80
43683;BME280;29285;52.128;21.060;2023-05-10T09:23:52;100895.41;;;17.25;47.47
43683;BME280;29285;52.128;21.060;2023-05-10T09:28:57;100889.52;;;17.18;46.82
43683;BME280;29285;52.128;21.060;2023-05-10T09:33:58;100890.23;;;17.32;46.93
43683;BME280;29285;52.128;21.060;2023-05-10T09:38:59;100893.98;;;17.45;46.94
43683;BME280;29285;52.128;21.060;2023-05-10T09:44:00;100893.09;;;17.55;46.85
43683;BME280;29285;52.128;21.060;2023-05-10T09:49:01;100884.89;;;17.59;46.52
43683;BME280;29285;52.128;21.060;2023-05-10T09:59:11;100882.55;;;17.70;45.97
43683;BME280;29285;52.128;21.060;2023-05-10T10:04:12;100877.23;;;17.76;45.82
43683;BME280;29285;52.128;21.060;2023-05-10T10:09:13;100874.69;;;17.83;45.73
43683;BME280;29285;52.128;21.060;2023-05-10T10:14:17;100873.14;;;17.87;45.47
43683;BME280;29285;52.128;21.060;2023-05-10T10:19:19;100866.13;;;18.01;45.53
43683;BME280;29285;52.128;21.060;2023-05-10T10:24:20;100863.92;;;18.14;45.54
43683;BME280;29285;52.128;21.060;2023-05-10T10:29:26;100861.02;;;18.20;45.35
43683;BME280;29285;52.128;21.060;2023-05-10T10:34:31;100850.65;;;18.25;45.10
43683;BME280;29285;52.128;21.060;2023-05-10T10:39:32;100840.57;;;18.31;44.73
43683;BME280;29285;52.128;21.060;2023-05-10T10:44:36;100847.05;;;18.36;44.28
43683;BME280;29285;52.128;21.060;2023-05-10T10:49:42;100847.56;;;18.54;44.21
43683;BME280;29285;52.128;21.060;2023-05-10T10:54:50;100836.35;;;18.70;43.92
43683;BME280;29285;52.128;21.060;2023-05-10T11:05:43;100837.05;;;19.08;43.52
43683;BME280;29285;52.128;21.060;2023-05-10T11:11:02;100824.00;;;19.33;43.61
43683;BME280;29285;52.128;21.060;2023-05-10T11:16:21;100829.73;;;19.42;42.90
43683;BME280;29285;52.128;21.060;2023-05-10T11:21:24;100821.64;;;19.62;42.80
43683;BME280;29285;52.128;21.060;2023-05-10T11:26:30;100825.67;;;19.74;42.58
43683;BME280;29285;52.128;21.060;2023-05-10T11:31:32;100814.70;;;19.86;42.27
43683;BME280;29285;52.128;21.060;2023-05-10T11:36:35;100819.26;;;20.02;42.13
43683;BME280;29285;52.128;21.060;2023-05-10T11:41:36;100808.58;;;20.16;41.86
43683;BME280;29285;52.128;21.060;2023-05-10T11:46:37;100806.56;;;20.21;41.48
43683;BME280;29285;52.128;21.060;2023-05-10T11:51:38;100807.16;;;20.34;41.18
43683;BME280;29285;52.128;21.060;2023-05-10T11:56:40;100805.23;;;20.38;40.74
43683;BME280;29285;52.128;21.060;2023-05-10T12:01:41;100807.36;;;20.48;40.40
43683;BME280;29285;52.128;21.060;2023-05-10T12:06:43;100799.58;;;20.62;40.23
43683;BME280;29285;52.128;21.060;2023-05-10T12:11:46;100798.36;;;20.72;39.87
43683;BME280;29285;52.128;21.060;2023-05-10T12:16:47;100797.42;;;20.89;39.67
43683;BME280;29285;52.128;21.060;2023-05-10T12:21:48;100795.61;;;20.99;39.40
43683;BME280;29285;52.128;21.060;2023-05-10T12:26:50;100791.86;;;21.04;38.99
43683;BME280;29285;52.128;21.060;2023-05-10T12:36:53;100787.69;;;21.29;38.53
43683;BME280;29285;52.128;21.060;2023-05-10T12:41:54;100782.48;;;21.31;38.07
43683;BME280;29285;52.128;21.060;2023-05-10T12:46:55;100785.40;;;21.42;37.85
43683;BME280;29285;52.128;21.060;2023-05-10T12:51:56;100777.56;;;21.50;37.58
43683;BME280;29285;52.128;21.060;2023-05-10T12:56:57;100779.20;;;21.62;37.33
43683;BME280;29285;52.128;21.060;2023-05-10T13:01:59;100777.70;;;21.67;36.97
43683;BME280;29285;52.128;21.060;2023-05-10T13:07:01;100781.11;;;21.63;36.50
43683;BME280;29285;52.128;21.060;2023-05-10T13:12:03;100774.61;;;21.79;36.42
43683;BME280;29285;52.128;21.060;2023-05-10T13:17:05;100770.16;;;21.95;36.32
43683;BME280;29285;52.128;21.060;2023-05-10T13:22:06;100767.61;;;22.15;36.15
43683;BME280;29285;52.128;21.060;2023-05-10T13:27:07;100764.45;;;22.33;35.95
43683;BME280;29285;52.128;21.060;2023-05-10T13:32:08;100763.59;;;22.42;35.67
43683;BME280;29285;52.128;21.060;2023-05-10T13:37:09;100755.83;;;22.39;35.17
43683;BME280;29285;52.128;21.060;2023-05-10T13:42:10;100756.55;;;22.41;34.92
43683;BME280;29285;52.128;21.060;2023-05-10T13:47:11;100748.83;;;22.56;34.82
43683;BME280;29285;52.128;21.060;2023-05-10T13:52:13;100749.52;;;22.74;34.73
43683;BME280;29285;52.128;21.060;2023-05-10T13:57:15;100742.20;;;22.84;34.45
43683;BME280;29285;52.128;21.060;2023-05-10T14:02:18;100743.70;;;22.94;34.31
43683;BME280;29285;52.128;21.060;2023-05-10T14:07:20;100739.52;;;23.05;34.15
43683;BME280;29285;52.128;21.060;2023-05-10T14:12:21;100731.35;;;23.25;34.08
43683;BME280;29285;52.128;21.060;2023-05-10T14:17:23;100725.02;;;23.42;34.04
43683;BME280;29285;52.128;21.060;2023-05-10T14:22:24;100729.59;;;23.54;33.85
43683;BME280;29285;52.128;21.060;2023-05-10T14:27:25;100725.95;;;23.52;33.44
43683;BME280;29285;52.128;21.060;2023-05-10T14:32:27;100729.29;;;23.44;33.14
43683;BME280;29285;52.128;21.060;2023-05-10T14:37:31;100730.71;;;23.47;32.88
43683;BME280;29285;52.128;21.060;2023-05-10T14:42:32;100726.77;;;23.48;32.68
43683;BME280;29285;52.128;21.060;2023-05-10T14:47:33;100722.06;;;23.44;32.27
43683;BME280;29285;52.128;21.060;2023-05-10T14:52:34;100723.08;;;23.61;32.09
43683;BME280;29285;52.128;21.060;2023-05-10T14:57:36;100721.42;;;23.84;32.08
43683;BME280;29285;52.128;21.060;2023-05-10T15:02:37;100717.91;;;24.02;31.85
43683;BME280;29285;52.128;21.060;2023-05-10T15:07:38;100717.23;;;24.24;31.75
43683;BME280;29285;52.128;21.060;2023-05-10T15:12:40;100717.59;;;24.47;31.85
43683;BME280;29285;52.128;21.060;2023-05-10T15:17:41;100719.30;;;24.56;31.53
43683;BME280;29285;52.128;21.060;2023-05-10T15:22:42;100717.49;;;24.59;31.21
43683;BME280;29285;52.128;21.060;2023-05-10T15:27:44;100719.95;;;24.67;31.07
43683;BME280;29285;52.128;21.060;2023-05-10T15:32:46;100714.68;;;24.61;30.56
43683;BME280;29285;52.128;21.060;2023-05-10T15:37:48;100714.40;;;24.89;30.79
43683;BME280;29285;52.128;21.060;2023-05-10T15:42:50;100711.83;;;25.10;30.98
43683;BME280;29285;52.128;21.060;2023-05-10T15:47:51;100708.83;;;25.15;30.81
43683;BME280;29285;52.128;21.060;2023-05-10T15:52:53;100705.87;;;25.02;30.41
43683;BME280;29285;52.128;21.060;2023-05-10T15:57:54;100707.66;;;25.01;30.17
43683;BME280;29285;52.128;21.060;2023-05-10T16:02:55;100711.70;;;25.15;30.03
43683;BME280;29285;52.128;21.060;2023-05-10T16:07:56;100709.98;;;25.31;29.94
43683;BME280;29285;52.128;21.060;2023-05-10T16:12:57;100706.53;;;25.62;29.92
43683;BME280;29285;52.128;21.060;2023-05-10T16:17:58;100706.80;;;25.78;29.62
43683;BME280;29285;52.128;21.060;2023-05-10T16:23:04;100707.58;;;25.84;29.13
43683;BME280;29285;52.128;21.060;2023-05-10T16:28:05;100706.25;;;26.00;29.06
43683;BME280;29285;52.128;21.060;2023-05-10T16:33:07;100710.41;;;26.06;28.72
43683;BME280;29285;52.128;21.060;2023-05-10T16:43:08;100711.73;;;26.12;28.05
43683;BME280;29285;52.128;21.060;2023-05-10T16:48:10;100711.31;;;26.25;27.74
43683;BME280;29285;52.128;21.060;2023-05-10T16:53:13;100710.22;;;26.33;27.47
43683;BME280;29285;52.128;21.060;2023-05-10T16:58:14;100713.27;;;26.34;27.23
43683;BME280;29285;52.128;21.060;2023-05-10T17:03:15;100718.71;;;26.28;26.81
43683;BME280;29285;52.128;21.060;2023-05-10T17:08:17;100721.59;;;26.21;26.70
43683;BME280;29285;52.128;21.060;2023-05-10T17:13:18;100723.52;;;25.97;26.36
43683;BME280;29285;52.128;21.060;2023-05-10T17:18:19;100735.00;;;25.74;26.04
43683;BME280;29285;52.128;21.060;2023-05-10T17:23:20;100735.89;;;25.49;25.94
43683;BME280;29285;52.128;21.060;2023-05-10T17:28:22;100735.71;;;25.24;25.79
43683;BME280;29285;52.128;21.060;2023-05-10T17:33:23;100740.05;;;24.93;25.73
43683;BME280;29285;52.128;21.060;2023-05-10T17:38:25;100744.30;;;24.21;25.72
43683;BME280;29285;52.128;21.060;2023-05-10T17:43:26;100749.02;;;23.37;25.50
43683;BME280;29285;52.128;21.060;2023-05-10T17:48:27;100751.88;;;22.58;25.32
43683;BME280;29285;52.128;21.060;2023-05-10T17:53:29;100760.66;;;21.94;25.32
43683;BME280;29285;52.128;21.060;2023-05-10T17:58:30;100765.14;;;21.32;25.30
43683;BME280;29285;52.128;21.060;2023-05-10T18:03:32;100767.95;;;20.81;25.38
43683;BME280;29285;52.128;21.060;2023-05-10T18:08:35;100768.52;;;20.39;25.58
43683;BME280;29285;52.128;21.060;2023-05-10T18:13:37;100769.55;;;19.96;25.65
43683;BME280;29285;52.128;21.060;2023-05-10T18:18:38;100775.51;;;19.63;25.86
43683;BME280;29285;52.128;21.060;2023-05-10T18:23:39;100775.04;;;19.35;26.09
43683;BME280;29285;52.128;21.060;2023-05-10T18:28:40;100783.63;;;19.03;26.31
43683;BME280;29285;52.128;21.060;2023-05-10T18:33:42;100788.98;;;18.77;26.51
43683;BME280;29285;52.128;21.060;2023-05-10T18:38:43;100798.22;;;18.53;26.69
43683;BME280;29285;52.128;21.060;2023-05-10T18:43:45;100805.84;;;18.30;26.93
43683;BME280;29285;52.128;21.060;2023-05-10T18:48:46;100807.70;;;18.15;27.17
43683;BME280;29285;52.128;21.060;2023-05-10T18:53:47;100817.48;;;17.92;27.35
43683;BME280;29285;52.128;21.060;2023-05-10T18:58:49;100822.02;;;17.71;27.56
43683;BME280;29285;52.128;21.060;2023-05-10T19:03:50;100820.33;;;17.54;27.72
43683;BME280;29285;52.128;21.060;2023-05-10T19:08:51;100823.48;;;17.45;28.04
43683;BME280;29285;52.128;21.060;2023-05-10T19:13:52;100825.54;;;17.32;28.26
43683;BME280;29285;52.128;21.060;2023-05-10T19:18:54;100826.93;;;17.12;28.42
43683;BME280;29285;52.128;21.060;2023-05-10T19:23:56;100822.61;;;16.99;28.68
43683;BME280;29285;52.128;21.060;2023-05-10T19:29:01;100826.11;;;16.90;28.94
43683;BME280;29285;52.128;21.060;2023-05-10T19:34:02;100827.54;;;16.79;29.14
43683;BME280;29285;52.128;21.060;2023-05-10T19:39:03;100833.54;;;16.72;29.42
43683;BME280;29285;52.128;21.060;2023-05-10T19:44:04;100827.75;;;16.61;29.56
43683;BME280;29285;52.128;21.060;2023-05-10T19:49:05;100832.53;;;16.44;29.69
43683;BME280;29285;52.128;21.060;2023-05-10T19:54:06;100831.02;;;16.32;29.92
43683;BME280;29285;52.128;21.060;2023-05-10T19:59:07;100831.58;;;16.24;30.19
43683;BME280;29285;52.128;21.060;2023-05-10T20:04:09;100833.98;;;16.21;30.42
43683;BME280;29285;52.128;21.060;2023-05-10T20:09:10;100834.42;;;16.18;30.73
43683;BME280;29285;52.128;21.060;2023-05-10T20:14:11;100844.42;;;16.11;30.82
43683;BME280;29285;52.128;21.060;2023-05-10T20:19:12;100841.30;;;16.05;31.01
43683;BME280;29285;52.128;21.060;2023-05-10T20:24:13;100841.17;;;15.97;31.21
43683;BME280;29285;52.128;21.060;2023-05-10T20:29:14;100841.17;;;15.90;31.36
43683;BME280;29285;52.128;21.060;2023-05-10T20:34:16;100844.18;;;15.83;31.58
43683;BME280;29285;52.128;21.060;2023-05-10T20:39:18;100844.34;;;15.77;31.83
43683;BME280;29285;52.128;21.060;2023-05-10T20:44:19;100845.48;;;15.75;32.05
43683;BME280;29285;52.128;21.060;2023-05-10T20:49:20;100845.06;;;15.65;32.18
43683;BME280;29285;52.128;21.060;2023-05-10T20:54:21;100849.35;;;15.49;32.33
43683;BME280;29285;52.128;21.060;2023-05-10T20:59:25;100856.19;;;15.36;32.45
43683;BME280;29285;52.128;21.060;2023-05-10T21:04:26;100864.13;;;15.27;32.62
43683;BME280;29285;52.128;21.060;2023-05-10T21:09:27;100873.42;;;15.19;32.84
43683;BME280;29285;52.128;21.060;2023-05-10T21:14:29;100871.10;;;15.15;33.06
43683;BME280;29285;52.128;21.060;2023-05-10T21:19:32;100870.61;;;15.07;33.25
43683;BME280;29285;52.128;21.060;2023-05-10T21:24:34;100876.39;;;14.99;33.50
43683;BME280;29285;52.128;21.060;2023-05-10T21:29:35;100870.66;;;14.91;33.65
43683;BME280;29285;52.128;21.060;2023-05-10T21:34:36;100873.08;;;14.86;33.85
43683;BME280;29285;52.128;21.060;2023-05-10T21:39:37;100876.05;;;14.78;33.97
43683;BME280;29285;52.128;21.060;2023-05-10T21:44:39;100881.95;;;14.79;34.29
43683;BME280;29285;52.128;21.060;2023-05-10T21:49:40;100878.39;;;14.82;34.75
43683;BME280;29285;52.128;21.060;2023-05-10T21:54:41;100880.48;;;14.82;35.00
43683;BME280;29285;52.128;21.060;2023-05-10T21:59:42;100885.63;;;14.71;35.12
43683;BME280;29285;52.128;21.060;2023-05-10T22:04:43;100885.89;;;14.66;35.27
43683;BME280;29285;52.128;21.060;2023-05-10T22:09:44;100890.52;;;14.79;35.74
43683;BME280;29285;52.128;21.060;2023-05-10T22:14:45;100892.45;;;14.71;35.95
43683;BME280;29285;52.128;21.060;2023-05-10T22:19:47;100895.61;;;14.55;36.00
43683;BME280;29285;52.128;21.060;2023-05-10T22:24:48;100901.64;;;14.43;36.00
43683;BME280;29285;52.128;21.060;2023-05-10T22:29:49;100903.82;;;14.31;36.19
43683;BME280;29285;52.128;21.060;2023-05-10T22:34:50;100907.75;;;14.20;36.33
43683;BME280;29285;52.128;21.060;2023-05-10T22:39:52;100912.32;;;14.26;36.75
43683;BME280;29285;52.128;21.060;2023-05-10T22:44:53;100915.16;;;14.24;36.97
43683;BME280;29285;52.128;21.060;2023-05-10T22:49:54;100917.08;;;14.24;37.10
43683;BME280;29285;52.128;21.060;2023-05-10T22:54:55;100924.42;;;13.98;37.01
43683;BME280;29285;52.128;21.060;2023-05-10T22:59:56;100922.69;;;13.72;36.92
43683;BME280;29285;52.128;21.060;2023-05-10T23:04:58;100921.86;;;13.52;36.87
43683;BME280;29285;52.128;21.060;2023-05-10T23:09:59;100925.27;;;13.34;36.93
43683;BME280;29285;52.128;21.060;2023-05-10T23:15:00;100926.14;;;13.25;37.19
43683;BME280;29285;52.128;21.060;2023-05-10T23:20:02;100930.50;;;13.14;37.33
43683;BME280;29285;52.128;21.060;2023-05-10T23:25:03;100929.42;;;13.06;37.40
43683;BME280;29285;52.128;21.060;2023-05-10T23:30:04;100927.59;;;13.00;37.48
43683;BME280;29285;52.128;21.060;2023-05-10T23:35:06;100925.48;;;12.92;37.67
43683;BME280;29285;52.128;21.060;2023-05-10T23:40:08;100924.92;;;12.82;37.90
43683;BME280;29285;52.128;21.060;2023-05-10T23:45:09;100922.77;;;12.76;38.15
43683;BME280;29285;52.128;21.060;2023-05-10T23:50:11;100926.17;;;12.69;38.07
43683;BME280;29285;52.128;21.060;2023-05-10T23:55:11;100926.77;;;12.64;38.16
